Flight Number: EUR1129 Duration: 1:20
Departure: Moscow Sheremetyevo (UUEE) at 18:20 Distance: 473 Nm
Arrival: Helsinki Vantaa (EFHK) at 19:40 Equipment: A321

Weather Information
Moscow / Sheremet'Ye , Russia (UUEE) 55-59N 037-30E Oct 19, 2018 - 02:30 PM EDT / 2018.10.19 1830 UTC
Wind: from the NW (310 degrees) at 9 MPH (8 KT):0
Visibility: greater than 7 mile(s):0
Sky conditions: mostly clear Temperature: 48 F (9 C) Dew Point: 44 F (7 C) Relative Humidity: 87% Pressure (altimeter): 30.03 in. Hg (1017 hPa)
ob: UUEE 191830Z 31004MPS 9999 FEW016 09/07 Q1017 R24C/CLRD62 R24L/CLRD62 NOSIG cycle: 18
Sunrise: 04:15 Sunset: 14:15 (UTC)

Helsinki-Vantaa, Finland (EFHK) 60-19N 024-58E 56M Oct 19, 2018 - 02:20 PM EDT / 2018.10.19 1820 UTC
Wind: from the W (270 degrees) at 7 MPH (6 KT):0
Visibility: greater than 7 mile(s):0 Temperature: 42 F (6 C) Dew Point: 35 F (2 C) Relative Humidity: 75% Pressure (altimeter): 30.09 in. Hg (1019 hPa)
ob: EFHK 191820Z 27006KT CAVOK 06/02 Q1019 NOSIG cycle: 18
Sunrise: 05:16 Sunset: 14:53 (UTC)

TAF:2018/10/19 18:42 TAF TAF EFHK 191737Z 1918/2018 28008KT CAVOK PROB40 1922/2007 2500 BR

Previous Pireps for this route
Date Aircraft Flight time Fuel used Landing rate On time
2012-11-22A32101.4610554-318Yes
2013-08-15A32101.349686-165No
2013-09-17A32101.4613775-195Yes
2013-10-18A3211.20263100No
2013-12-30B7372.00150000Charter
2014-06-12A32100.2215144-234No
2015-01-08A32102.1312655-58Yes
2015-03-20A32101.3111337-326Yes
2015-09-16A32101.2712944-178No
(pireps marked green are flown by you)

Route map